createdAt,value
2018-04-16T00:00:34.778Z,54.20
2018-04-16T00:01:34.966Z,56.15
2018-04-16T00:02:35.152Z,54.44
2018-04-16T00:03:35.339Z,56.15
2018-04-16T00:04:35.530Z,60.79
2018-04-16T00:05:35.717Z,52.25
2018-04-16T00:06:35.907Z,55.42
2018-04-16T00:07:36.094Z,54.44
2018-04-16T00:08:36.284Z,56.64
2018-04-16T00:09:36.472Z,57.62
2018-04-16T00:10:36.661Z,55.18
2018-04-16T00:11:36.852Z,55.18
2018-04-16T00:12:37.039Z,53.22
2018-04-16T00:13:37.227Z,52.98
2018-04-16T00:14:37.421Z,52.25
2018-04-16T00:15:37.605Z,58.11
2018-04-16T00:16:37.792Z,52.25
2018-04-16T00:17:37.981Z,57.62
2018-04-16T00:18:38.171Z,52.73
2018-04-16T00:19:38.376Z,52.98
2018-04-16T00:20:38.550Z,51.76
2018-04-16T00:21:38.737Z,51.51
2018-04-16T00:22:38.927Z,51.27
2018-04-16T00:23:39.117Z,52.98
2018-04-16T00:24:39.304Z,55.18
2018-04-16T00:25:39.492Z,56.64
2018-04-16T00:26:39.679Z,53.47
2018-04-16T00:27:39.868Z,51.51
2018-04-16T00:28:40.055Z,51.03
2018-04-16T00:29:40.243Z,50.29
2018-04-16T00:30:40.432Z,51.27
2018-04-16T00:31:40.620Z,49.80
2018-04-16T00:32:40.810Z,52.00
2018-04-16T00:33:40.999Z,52.73
2018-04-16T00:34:41.192Z,55.66
2018-04-16T00:35:41.423Z,53.96
2018-04-16T00:36:41.565Z,52.25
2018-04-16T00:37:41.758Z,51.76
2018-04-16T00:38:41.943Z,54.44
2018-04-16T00:39:42.133Z,54.93
2018-04-16T00:40:42.322Z,53.96
2018-04-16T00:41:42.512Z,52.00
2018-04-16T00:42:42.700Z,52.49
2018-04-16T00:43:42.888Z,55.18
2018-04-16T00:44:43.089Z,56.15
2018-04-16T00:45:43.266Z,57.13
2018-04-16T00:46:43.453Z,52.73
2018-04-16T00:47:43.641Z,56.40
2018-04-16T00:48:43.830Z,52.25
2018-04-16T00:49:44.020Z,57.86
2018-04-16T00:50:44.208Z,54.93
2018-04-16T00:51:44.407Z,57.62
2018-04-16T00:52:44.590Z,55.91
2018-04-16T00:53:44.777Z,57.62
2018-04-16T00:54:44.970Z,57.13
2018-04-16T00:55:45.155Z,60.79
2018-04-16T00:56:45.342Z,58.35
2018-04-16T00:57:45.533Z,58.11
2018-04-16T00:58:45.721Z,59.57
2018-04-16T00:59:45.909Z,57.62
2018-04-16T01:00:46.097Z,58.59
2018-04-16T01:01:46.286Z,52.49
2018-04-16T01:02:46.477Z,52.25
2018-04-16T01:03:46.666Z,56.40
2018-04-16T01:04:46.854Z,53.22
2018-04-16T01:05:47.042Z,52.73
2018-04-16T01:06:47.231Z,58.11
2018-04-16T01:07:47.419Z,57.62
2018-04-16T01:08:47.606Z,53.47
2018-04-16T01:09:47.795Z,54.44
2018-04-16T01:10:47.983Z,52.73
2018-04-16T01:11:48.178Z,52.73
2018-04-16T01:12:48.366Z,53.96
2018-04-16T01:13:48.551Z,52.49
2018-04-16T01:14:48.741Z,56.15
2018-04-16T01:15:48.929Z,57.37
2018-04-16T01:16:49.117Z,60.06
2018-04-16T01:17:49.304Z,58.84
2018-04-16T01:18:49.493Z,56.64
2018-04-16T01:19:49.681Z,56.88
2018-04-16T01:20:49.868Z,59.81
2018-04-16T01:21:50.058Z,57.62
2018-04-16T01:22:50.246Z,56.40
2018-04-16T01:23:50.432Z,54.20
2018-04-16T01:24:50.623Z,52.00
2018-04-16T01:25:50.810Z,52.00
2018-04-16T01:26:51.003Z,56.88
2018-04-16T01:27:51.191Z,57.37
2018-04-16T01:28:51.380Z,57.62
2018-04-16T01:30:06.083Z,61.04
2018-04-16T01:30:51.758Z,59.33
2018-04-16T01:31:51.942Z,60.06
2018-04-16T01:32:52.130Z,58.35
2018-04-16T01:33:52.319Z,58.35
2018-04-16T01:34:52.507Z,59.57
2018-04-16T01:35:52.694Z,59.81
2018-04-16T01:36:52.883Z,61.77
2018-04-16T01:37:53.279Z,59.81
2018-04-16T01:38:53.236Z,58.84
2018-04-16T01:39:53.429Z,58.84
2018-04-16T01:40:53.615Z,63.72
2018-04-16T01:41:53.803Z,63.23
2018-04-16T01:42:53.993Z,58.11
2018-04-16T01:43:54.183Z,59.57
2018-04-16T01:44:54.372Z,59.08
2018-04-16T01:45:54.562Z,56.40
2018-04-16T01:46:54.750Z,60.30
2018-04-16T01:47:54.939Z,60.06
2018-04-16T01:48:55.128Z,57.13
2018-04-16T01:49:55.315Z,52.98
2018-04-16T01:50:55.507Z,55.91
2018-04-16T01:51:55.693Z,58.11
2018-04-16T01:52:55.879Z,54.93
2018-04-16T01:53:56.068Z,58.59
2018-04-16T01:54:56.255Z,60.79
2018-04-16T01:55:56.444Z,60.30
2018-04-16T01:56:56.632Z,59.81
2018-04-16T01:57:56.820Z,58.35
2018-04-16T01:58:57.009Z,58.84
2018-04-16T01:59:57.198Z,63.48
2018-04-16T02:00:57.385Z,62.99
2018-04-16T02:01:57.575Z,59.08
2018-04-16T02:02:57.763Z,60.06
2018-04-16T02:03:57.952Z,58.84
2018-04-16T02:04:58.140Z,59.81
2018-04-16T02:05:58.328Z,63.23
2018-04-16T02:06:58.516Z,62.99
2018-04-16T02:07:58.706Z,67.63
2018-04-16T02:08:58.895Z,61.28
2018-04-16T02:09:59.083Z,65.19
2018-04-16T02:10:59.271Z,62.50
2018-04-16T02:11:59.460Z,54.93
2018-04-16T02:12:59.648Z,58.35
2018-04-16T02:13:59.834Z,56.88
2018-04-16T02:15:00.023Z,59.81
2018-04-16T02:16:00.213Z,57.37
2018-04-16T02:17:00.402Z,59.08
2018-04-16T02:18:00.590Z,52.73
2018-04-16T02:19:00.778Z,51.76
2018-04-16T02:20:00.968Z,51.51
2018-04-16T02:21:01.155Z,56.15
2018-04-16T02:22:01.346Z,53.96
2018-04-16T02:23:01.529Z,55.91
2018-04-16T02:24:01.717Z,54.93
2018-04-16T02:25:01.913Z,56.64
2018-04-16T02:26:02.093Z,56.88
2018-04-16T02:27:02.280Z,53.71
2018-04-16T02:28:02.469Z,53.96
2018-04-16T02:29:02.655Z,54.93
2018-04-16T02:30:02.846Z,53.71
2018-04-16T02:31:03.031Z,55.42
2018-04-16T02:32:03.219Z,57.62
2018-04-16T02:33:03.412Z,57.13
2018-04-16T02:34:03.597Z,55.42
2018-04-16T02:35:03.785Z,54.69
2018-04-16T02:36:03.973Z,58.84
2018-04-16T02:37:04.159Z,53.22
2018-04-16T02:38:04.347Z,52.73
2018-04-16T02:39:04.539Z,53.22
2018-04-16T02:40:04.720Z,54.20
2018-04-16T02:41:04.908Z,55.18
2018-04-16T02:42:05.095Z,53.71
2018-04-16T02:43:05.283Z,60.06
2018-04-16T02:44:05.708Z,60.30
2018-04-16T02:45:05.890Z,60.30
2018-04-16T02:46:06.003Z,59.08
2018-04-16T02:47:06.066Z,62.74
2018-04-16T02:48:06.255Z,60.06
2018-04-16T02:49:06.443Z,58.35
2018-04-16T02:50:06.632Z,59.57
2018-04-16T02:51:06.822Z,58.11
2018-04-16T02:52:07.008Z,57.13
2018-04-16T02:53:07.197Z,57.62
2018-04-16T02:54:07.384Z,59.57
2018-04-16T02:55:07.570Z,58.35
2018-04-16T02:56:07.758Z,58.35
2018-04-16T02:57:07.952Z,59.08
2018-04-16T02:58:08.134Z,58.59
2018-04-16T02:59:08.321Z,58.35
2018-04-16T03:00:08.507Z,59.81
2018-04-16T03:01:08.698Z,61.28
2018-04-16T03:02:08.890Z,60.30
2018-04-16T03:03:09.074Z,60.30
2018-04-16T03:04:09.261Z,59.57
2018-04-16T03:05:09.449Z,60.06
2018-04-16T03:06:09.638Z,59.33
2018-04-16T03:07:09.828Z,56.88
2018-04-16T03:08:10.013Z,55.66
2018-04-16T03:09:10.202Z,55.18
2018-04-16T03:10:10.389Z,55.66
2018-04-16T03:11:10.575Z,54.44
2018-04-16T03:12:10.764Z,55.66
2018-04-16T03:13:10.952Z,55.42
2018-04-16T03:14:11.137Z,59.33
2018-04-16T03:15:11.327Z,55.42
2018-04-16T03:16:11.515Z,54.44
2018-04-16T03:17:11.702Z,54.69
2018-04-16T03:18:11.891Z,63.48
2018-04-16T03:19:12.081Z,62.74
2018-04-16T03:20:12.268Z,55.18
2018-04-16T03:21:12.453Z,54.44
2018-04-16T03:22:12.640Z,55.66
2018-04-16T03:23:12.828Z,55.66
2018-04-16T03:24:13.015Z,59.81
2018-04-16T03:25:13.204Z,61.52
2018-04-16T03:26:13.391Z,55.66
2018-04-16T03:27:13.580Z,55.91
2018-04-16T03:28:13.767Z,54.44
2018-04-16T03:29:13.957Z,53.96
2018-04-16T03:30:14.142Z,53.47
2018-04-16T03:31:14.331Z,54.20
2018-04-16T03:32:14.519Z,52.49
2018-04-16T03:33:14.706Z,54.44
2018-04-16T03:34:14.894Z,57.86
2018-04-16T03:35:15.082Z,55.18
2018-04-16T03:36:15.271Z,56.88
2018-04-16T03:37:15.457Z,55.42
2018-04-16T03:38:15.645Z,57.86
2018-04-16T03:39:15.831Z,55.66
2018-04-16T03:40:16.019Z,57.86
2018-04-16T03:41:16.207Z,58.84
2018-04-16T03:42:16.395Z,63.72
2018-04-16T03:43:16.582Z,63.48
2018-04-16T03:44:16.772Z,62.50
2018-04-16T03:45:16.958Z,63.72
2018-04-16T03:46:17.145Z,62.74
2018-04-16T03:47:17.332Z,60.55
2018-04-16T03:48:17.518Z,62.99
2018-04-16T03:49:17.707Z,64.21
2018-04-16T03:50:17.897Z,62.50
2018-04-16T03:51:18.082Z,62.01
2018-04-16T03:52:18.270Z,62.26
2018-04-16T03:53:18.458Z,60.79
2018-04-16T03:54:18.646Z,60.06
2018-04-16T03:55:18.918Z,61.52
2018-04-16T03:56:19.021Z,60.79
2018-04-16T03:57:19.209Z,59.57
2018-04-16T03:58:19.396Z,58.11
2018-04-16T03:59:19.584Z,58.11
2018-04-16T04:00:19.772Z,58.35
2018-04-16T04:01:19.972Z,64.45
2018-04-16T04:02:20.146Z,56.40
2018-04-16T04:03:20.334Z,57.86
2018-04-16T04:04:20.520Z,58.11
2018-04-16T04:05:20.709Z,55.42
2018-04-16T04:06:20.897Z,58.35
2018-04-16T04:07:21.085Z,59.81
2018-04-16T04:08:21.274Z,61.52
2018-04-16T04:09:21.459Z,59.33
2018-04-16T04:10:21.647Z,58.11
2018-04-16T04:11:21.837Z,59.33
2018-04-16T04:12:22.020Z,61.77
2018-04-16T04:13:22.214Z,59.81
2018-04-16T04:14:22.397Z,59.08
2018-04-16T04:15:22.586Z,60.30
2018-04-16T04:16:22.772Z,53.96
2018-04-16T04:17:22.958Z,56.88
2018-04-16T04:18:23.148Z,58.11
2018-04-16T04:19:23.335Z,57.86
2018-04-16T04:20:23.525Z,56.15
2018-04-16T04:21:23.710Z,55.42
2018-04-16T04:22:23.899Z,55.42
2018-04-16T04:23:24.084Z,56.40
2018-04-16T04:24:24.272Z,58.59
2018-04-16T04:25:24.461Z,56.40
2018-04-16T04:26:24.648Z,54.93
2018-04-16T04:27:24.836Z,56.88
2018-04-16T04:28:25.023Z,56.64
2018-04-16T04:29:25.211Z,59.08
2018-04-16T04:30:25.400Z,59.57
2018-04-16T04:31:25.588Z,59.33
2018-04-16T04:32:25.776Z,58.84
2018-04-16T04:33:25.964Z,57.37
2018-04-16T04:34:26.153Z,59.08
2018-04-16T04:35:26.344Z,60.30
2018-04-16T04:36:26.528Z,60.30
2018-04-16T04:37:26.715Z,61.04
2018-04-16T04:38:26.902Z,60.79
2018-04-16T04:39:27.090Z,61.28
2018-04-16T04:40:27.276Z,60.79
2018-04-16T04:41:27.466Z,59.81
2018-04-16T04:42:27.653Z,61.04
2018-04-16T04:43:27.840Z,61.04
2018-04-16T04:44:28.028Z,58.35
2018-04-16T04:45:28.217Z,59.57
2018-04-16T04:46:28.408Z,63.96
2018-04-16T04:47:28.594Z,60.30
2018-04-16T04:48:28.785Z,60.30
2018-04-16T04:49:28.969Z,58.11
2018-04-16T04:50:29.156Z,57.86
2018-04-16T04:51:29.346Z,58.84
2018-04-16T04:52:29.532Z,58.84
2018-04-16T04:53:29.720Z,57.62
2018-04-16T04:54:29.910Z,59.81
2018-04-16T04:55:30.096Z,61.28
2018-04-16T04:56:30.284Z,65.67
2018-04-16T04:57:30.470Z,62.99
2018-04-16T04:58:30.658Z,63.72
2018-04-16T04:59:30.847Z,60.30
2018-04-16T05:00:31.033Z,59.81
2018-04-16T05:01:31.220Z,62.50
2018-04-16T05:02:31.408Z,60.55
2018-04-16T05:03:31.596Z,61.77
2018-04-16T05:04:31.785Z,61.52
2018-04-16T05:05:31.972Z,58.84
2018-04-16T05:06:32.193Z,57.62
2018-04-16T05:07:32.344Z,55.66
2018-04-16T05:08:32.532Z,58.35
2018-04-16T05:09:32.744Z,58.11
2018-04-16T05:10:32.909Z,57.86
2018-04-16T05:11:33.096Z,58.84
2018-04-16T05:12:33.285Z,58.84
2018-04-16T05:13:33.473Z,62.50
2018-04-16T05:14:33.659Z,60.30
2018-04-16T05:15:33.857Z,62.74
2018-04-16T05:16:34.037Z,58.59
2018-04-16T05:17:34.237Z,59.81
2018-04-16T05:18:34.412Z,59.08
2018-04-16T05:19:34.601Z,57.62
2018-04-16T05:20:34.788Z,63.72
2018-04-16T05:21:34.975Z,60.55
2018-04-16T05:22:35.163Z,65.19
2018-04-16T05:23:35.352Z,59.08
2018-04-16T05:24:35.538Z,61.04
2018-04-16T05:25:35.723Z,60.55
2018-04-16T05:26:35.912Z,56.88
2018-04-16T05:27:36.098Z,56.64
2018-04-16T05:28:36.287Z,57.13
2018-04-16T05:29:36.475Z,54.93
2018-04-16T05:30:36.665Z,55.18
2018-04-16T05:31:36.855Z,57.62
2018-04-16T05:32:37.045Z,58.84
2018-04-16T05:33:37.229Z,57.37
2018-04-16T05:34:37.418Z,57.13
2018-04-16T05:35:37.605Z,57.62
2018-04-16T05:36:37.793Z,56.64
2018-04-16T05:37:37.980Z,56.15
2018-04-16T05:38:38.169Z,52.73
2018-04-16T05:39:38.355Z,57.62
2018-04-16T05:40:38.544Z,57.86
2018-04-16T05:41:38.732Z,61.04
2018-04-16T05:42:38.918Z,62.99
2018-04-16T05:43:39.106Z,57.62
2018-04-16T05:44:39.293Z,58.35
2018-04-16T05:45:39.483Z,57.13
2018-04-16T05:46:39.671Z,59.33
2018-04-16T05:47:39.859Z,59.81
2018-04-16T05:48:40.049Z,54.93
2018-04-16T05:49:40.235Z,58.84
2018-04-16T05:50:40.423Z,59.81
2018-04-16T05:51:40.611Z,58.35
2018-04-16T05:52:40.803Z,57.13
2018-04-16T05:53:40.986Z,60.30
2018-04-16T05:54:41.177Z,58.35
2018-04-16T05:55:41.362Z,54.20
2018-04-16T05:56:41.550Z,58.59
2018-04-16T05:57:41.742Z,57.13
2018-04-16T05:58:41.925Z,58.35
2018-04-16T05:59:42.114Z,59.57
2018-04-16T06:00:42.303Z,65.92
2018-04-16T06:01:42.491Z,68.12
2018-04-16T06:02:42.679Z,57.86
2018-04-16T06:03:42.867Z,51.51
2018-04-16T06:04:43.057Z,51.76
2018-04-16T06:05:43.249Z,53.47
2018-04-16T06:06:43.433Z,51.27
2018-04-16T06:07:43.620Z,52.98
2018-04-16T06:08:43.808Z,50.29
2018-04-16T06:09:43.998Z,54.93
2018-04-16T06:10:44.188Z,49.07
2018-04-16T06:11:44.378Z,52.00
2018-04-16T06:12:44.564Z,54.44
2018-04-16T06:13:44.752Z,54.69
2018-04-16T06:14:44.941Z,51.27
2018-04-16T06:15:45.128Z,57.86
2018-04-16T06:16:45.317Z,57.62
2018-04-16T06:17:45.505Z,55.18
2018-04-16T06:18:45.695Z,51.03
2018-04-16T06:19:45.887Z,55.66
2018-04-16T06:20:46.069Z,49.07
2018-04-16T06:21:46.261Z,53.47
2018-04-16T06:22:46.448Z,47.61
2018-04-16T06:23:46.637Z,46.14
2018-04-16T06:24:46.827Z,48.34
2018-04-16T06:25:47.015Z,52.00
2018-04-16T06:26:47.203Z,50.54
2018-04-16T06:27:47.392Z,51.27
2018-04-16T06:28:47.582Z,52.25
2018-04-16T06:29:47.769Z,55.91
2018-04-16T06:30:47.958Z,53.71
2018-04-16T06:31:48.147Z,57.86
2018-04-16T06:32:48.337Z,46.63
2018-04-16T06:33:48.527Z,62.50
2018-04-16T06:34:48.717Z,50.29
2018-04-16T06:35:48.905Z,67.87
2018-04-16T06:36:49.099Z,46.39
2018-04-16T06:37:49.283Z,47.12
2018-04-16T06:38:49.471Z,53.47
2018-04-16T06:39:49.659Z,55.66
2018-04-16T06:40:49.848Z,54.93
2018-04-16T06:41:50.037Z,54.44
2018-04-16T06:42:50.225Z,51.76
2018-04-16T06:43:50.414Z,53.71
2018-04-16T06:44:50.607Z,52.73
2018-04-16T06:45:50.792Z,51.76
2018-04-16T06:46:50.981Z,55.42
2018-04-16T06:47:51.170Z,53.96
2018-04-16T06:48:51.359Z,52.00
2018-04-16T06:49:51.550Z,52.98
2018-04-16T06:50:51.740Z,55.66
2018-04-16T06:51:51.933Z,47.61
2018-04-16T06:52:52.118Z,56.40
2018-04-16T06:53:52.308Z,47.12
2018-04-16T06:54:52.498Z,55.42
2018-04-16T06:55:52.686Z,54.20
2018-04-16T06:56:52.877Z,53.22
2018-04-16T06:57:53.067Z,52.98
2018-04-16T06:58:53.254Z,50.29
2018-04-16T06:59:53.448Z,53.22
2018-04-16T07:00:53.643Z,52.73
2018-04-16T07:01:53.882Z,55.42
2018-04-16T07:02:54.021Z,54.44
2018-04-16T07:03:54.213Z,52.73
2018-04-16T07:04:54.430Z,52.49
2018-04-16T07:05:54.595Z,56.64
2018-04-16T07:06:54.783Z,55.66
2018-04-16T07:07:54.979Z,52.25
2018-04-16T07:08:55.162Z,51.27
2018-04-16T07:09:55.351Z,77.64
2018-04-16T07:10:55.542Z,55.66
2018-04-16T07:11:55.735Z,52.00
2018-04-16T07:12:55.920Z,52.73
2018-04-16T07:13:56.109Z,50.05
2018-04-16T07:14:56.300Z,49.80
2018-04-16T07:15:56.559Z,49.32
2018-04-16T07:16:56.684Z,47.36
2018-04-16T07:17:56.874Z,58.59
2018-04-16T07:18:57.066Z,49.07
2018-04-16T07:19:57.255Z,52.49
2018-04-16T07:20:57.444Z,53.22
2018-04-16T07:21:57.636Z,61.28
2018-04-16T07:22:57.826Z,60.55
2018-04-16T07:23:58.017Z,59.57
2018-04-16T07:24:58.207Z,55.18
2018-04-16T07:25:58.400Z,52.25
2018-04-16T07:26:58.590Z,50.05
2018-04-16T07:27:58.779Z,50.29
2018-04-16T07:28:58.971Z,53.96
2018-04-16T07:29:59.167Z,50.29
2018-04-16T07:30:59.353Z,51.03
2018-04-16T07:31:59.543Z,52.73
2018-04-16T07:32:59.735Z,52.49
2018-04-16T07:33:59.927Z,59.33
2018-04-16T07:35:00.116Z,48.34
2018-04-16T07:36:00.307Z,50.29
2018-04-16T07:37:00.502Z,50.05
2018-04-16T07:38:00.688Z,49.32
2018-04-16T07:39:00.882Z,48.58
2018-04-16T07:40:01.074Z,49.56
2018-04-16T07:41:01.269Z,50.78
2018-04-16T07:42:01.457Z,63.72
2018-04-16T07:43:01.650Z,63.96
2018-04-16T07:44:01.840Z,49.80
2018-04-16T07:45:02.041Z,45.65
2018-04-16T07:46:02.227Z,53.47
2018-04-16T07:47:02.420Z,49.07
2018-04-16T07:48:02.612Z,52.25
2018-04-16T07:49:02.814Z,52.73
2018-04-16T07:50:02.999Z,56.40
2018-04-16T07:51:03.192Z,54.44
2018-04-16T07:52:03.449Z,54.93
2018-04-16T07:53:03.518Z,53.71
2018-04-16T07:54:03.712Z,48.58
2018-04-16T07:55:03.904Z,49.80
2018-04-16T07:56:04.096Z,48.34
2018-04-16T07:57:04.290Z,48.58
2018-04-16T07:58:04.484Z,46.39
2018-04-16T07:59:04.678Z,48.34
2018-04-16T08:00:04.872Z,50.54
2018-04-16T08:01:05.064Z,48.34
2018-04-16T08:02:05.257Z,43.70
2018-04-16T08:03:05.451Z,49.56
2018-04-16T08:04:05.646Z,48.83
2018-04-16T08:05:05.840Z,53.47
2018-04-16T08:06:06.038Z,46.88
2018-04-16T08:07:06.228Z,53.71
2018-04-16T08:08:06.421Z,59.57
2018-04-16T08:09:06.615Z,56.88
2018-04-16T08:10:06.810Z,50.29
2018-04-16T08:11:07.004Z,50.78
2018-04-16T08:12:07.199Z,52.00
2018-04-16T08:13:07.392Z,60.55
2018-04-16T08:14:07.590Z,64.70
2018-04-16T08:15:07.785Z,47.61
2018-04-16T08:16:08.033Z,47.12
2018-04-16T08:17:08.172Z,50.29
2018-04-16T08:18:08.365Z,49.56
2018-04-16T08:19:08.562Z,54.44
2018-04-16T08:20:08.757Z,51.51
2018-04-16T08:21:08.955Z,54.44
2018-04-16T08:22:09.151Z,47.61
2018-04-16T08:23:09.345Z,48.58
2018-04-16T08:24:09.541Z,47.61
2018-04-16T08:25:09.736Z,48.10
2018-04-16T08:26:09.940Z,49.07
2018-04-16T08:27:10.135Z,49.32
2018-04-16T08:28:10.331Z,53.96
2018-04-16T08:29:10.528Z,52.49
2018-04-16T08:30:10.724Z,56.15
2018-04-16T08:31:10.918Z,58.84
2018-04-16T08:32:11.119Z,51.76
2018-04-16T08:33:11.311Z,51.27
2018-04-16T08:34:11.506Z,52.49
2018-04-16T08:35:11.706Z,53.47
2018-04-16T08:36:11.901Z,49.80
2018-04-16T08:37:12.104Z,53.96
2018-04-16T08:38:12.295Z,50.29
2018-04-16T08:39:12.497Z,51.27
2018-04-16T08:40:12.678Z,47.12
2018-04-16T08:41:12.895Z,49.07
2018-04-16T08:42:13.092Z,51.27
2018-04-16T08:43:13.286Z,52.98
2018-04-16T08:44:13.484Z,53.47
2018-04-16T08:45:13.685Z,54.44
2018-04-16T08:46:13.882Z,54.93
2018-04-16T08:47:14.076Z,56.15
2018-04-16T08:48:14.276Z,52.49
2018-04-16T08:49:14.470Z,56.88
2018-04-16T08:50:14.667Z,48.10
2018-04-16T08:51:14.864Z,49.56
2018-04-16T08:52:15.065Z,50.78
2018-04-16T08:53:15.261Z,51.03
2018-04-16T08:54:15.455Z,52.25
2018-04-16T08:55:15.651Z,51.03
2018-04-16T08:56:15.849Z,52.25
2018-04-16T08:57:16.044Z,53.22
2018-04-16T08:58:16.240Z,52.98
2018-04-16T08:59:16.438Z,50.54
2018-04-16T09:00:16.638Z,44.19
2018-04-16T09:01:16.838Z,50.78
2018-04-16T09:02:17.029Z,55.18
2018-04-16T09:03:17.227Z,49.80
2018-04-16T09:04:17.424Z,50.29
2018-04-16T09:05:17.627Z,52.49
2018-04-16T09:06:17.817Z,48.58
2018-04-16T09:07:18.012Z,49.56
2018-04-16T09:08:18.207Z,50.05
2018-04-16T09:09:18.405Z,50.05
2018-04-16T09:10:18.600Z,47.85
2018-04-16T09:11:18.795Z,53.47
2018-04-16T09:12:18.993Z,52.49
2018-04-16T09:13:19.190Z,58.59
2018-04-16T09:14:19.385Z,63.48
2018-04-16T09:15:19.584Z,55.66
2018-04-16T09:16:19.776Z,56.15
2018-04-16T09:17:20.016Z,65.92
2018-04-16T09:18:20.169Z,66.65
2018-04-16T09:19:20.362Z,57.13
2018-04-16T09:20:20.557Z,58.84
2018-04-16T09:21:20.753Z,54.93
2018-04-16T09:22:20.948Z,53.47
2018-04-16T09:23:21.144Z,59.33
2018-04-16T09:24:21.340Z,54.93
2018-04-16T09:25:21.535Z,49.32
2018-04-16T09:26:21.731Z,51.76
2018-04-16T09:27:21.924Z,51.27
2018-04-16T09:28:22.119Z,52.00
2018-04-16T09:29:22.317Z,52.25
2018-04-16T09:30:22.511Z,52.00
2018-04-16T09:31:22.705Z,51.03
2018-04-16T09:32:22.899Z,52.25
2018-04-16T09:33:23.095Z,52.00
2018-04-16T09:34:23.288Z,56.15
2018-04-16T09:35:23.492Z,54.20
2018-04-16T09:36:23.679Z,53.96
2018-04-16T09:37:23.873Z,51.76
2018-04-16T09:38:24.068Z,53.47
2018-04-16T09:39:24.263Z,53.96
2018-04-16T09:40:24.458Z,54.20
2018-04-16T09:41:24.653Z,52.98
2018-04-16T09:42:24.844Z,57.86
2018-04-16T09:43:25.042Z,62.99
2018-04-16T09:44:25.235Z,53.71
2018-04-16T09:45:25.429Z,58.35
2018-04-16T09:46:25.624Z,56.40
2018-04-16T09:47:25.818Z,54.93
2018-04-16T09:48:26.012Z,68.36
2018-04-16T09:49:26.206Z,55.91
2018-04-16T09:50:26.408Z,63.72
2018-04-16T09:51:26.593Z,55.91
2018-04-16T09:52:26.788Z,64.21
2018-04-16T09:53:26.982Z,69.09
2018-04-16T09:54:27.174Z,69.58
2018-04-16T09:55:27.371Z,56.88
2018-04-16T09:56:27.564Z,58.35
2018-04-16T09:57:27.758Z,62.99
2018-04-16T09:58:27.977Z,62.01
2018-04-16T09:59:28.143Z,60.30
2018-04-16T10:00:28.338Z,59.81
2018-04-16T10:01:28.532Z,56.88
2018-04-16T10:02:28.723Z,58.84
2018-04-16T10:03:28.917Z,56.64
2018-04-16T10:04:29.112Z,56.88
2018-04-16T10:05:29.305Z,65.19
2018-04-16T10:06:29.496Z,75.68
2018-04-16T10:07:29.689Z,63.48
2018-04-16T10:08:29.881Z,55.66
2018-04-16T10:09:30.075Z,60.55
2018-04-16T10:10:30.268Z,71.04
2018-04-16T10:11:30.459Z,80.08
2018-04-16T10:12:30.655Z,76.17
2018-04-16T10:13:30.853Z,87.40
2018-04-16T10:14:31.044Z,81.05
2018-04-16T10:15:31.235Z,81.05
2018-04-16T10:16:31.429Z,75.68
2018-04-16T10:17:31.621Z,72.51
2018-04-16T10:18:31.814Z,74.95
2018-04-16T10:19:32.007Z,54.69
2018-04-16T10:20:32.201Z,57.37
2018-04-16T10:21:32.392Z,61.04
2018-04-16T10:22:32.587Z,57.86
2018-04-16T10:23:32.777Z,75.20
2018-04-16T10:24:32.969Z,71.78
2018-04-16T10:25:33.163Z,58.59
2018-04-16T10:26:33.358Z,59.57
2018-04-16T10:27:33.548Z,61.77
2018-04-16T10:28:33.740Z,61.04
2018-04-16T10:29:33.934Z,66.89
2018-04-16T10:30:34.127Z,59.81
2018-04-16T10:31:34.319Z,67.63
2018-04-16T10:32:34.513Z,61.77
2018-04-16T10:33:34.706Z,54.93
2018-04-16T10:34:34.908Z,67.87
2018-04-16T10:35:35.094Z,70.07
2018-04-16T10:36:35.286Z,73.97
2018-04-16T10:37:35.480Z,65.19
2018-04-16T10:38:35.672Z,60.06
2018-04-16T10:39:35.865Z,71.78
2018-04-16T10:40:36.058Z,66.65
2018-04-16T10:41:36.255Z,62.01
2018-04-16T10:42:36.445Z,63.72
2018-04-16T10:43:36.638Z,55.18
2018-04-16T10:44:36.831Z,56.64
2018-04-16T10:45:37.025Z,63.23
2018-04-16T10:46:37.219Z,67.14
2018-04-16T10:47:37.412Z,70.80
2018-04-16T10:48:37.605Z,64.94
2018-04-16T10:49:37.804Z,63.96
2018-04-16T10:50:37.995Z,60.79
2018-04-16T10:51:38.183Z,64.45
2018-04-16T10:52:38.375Z,64.94
2018-04-16T10:53:38.570Z,61.52
2018-04-16T10:54:38.766Z,57.62
2018-04-16T10:55:38.963Z,62.50
2018-04-16T10:56:39.153Z,56.88
2018-04-16T10:57:39.344Z,67.14
2018-04-16T10:58:39.539Z,56.64
2018-04-16T10:59:39.732Z,61.28
2018-04-16T11:00:39.926Z,53.22
2018-04-16T11:01:40.118Z,56.88
2018-04-16T11:02:40.313Z,59.33
2018-04-16T11:03:40.507Z,54.20
2018-04-16T11:04:40.699Z,70.56
2018-04-16T11:05:40.894Z,67.38
2018-04-16T11:06:41.087Z,65.92
2018-04-16T11:07:41.281Z,61.28
2018-04-16T11:08:41.475Z,54.20
2018-04-16T11:09:41.669Z,52.00
2018-04-16T11:10:41.862Z,59.57
2018-04-16T11:11:42.058Z,62.01
2018-04-16T11:12:42.252Z,52.00
2018-04-16T11:13:42.446Z,54.44
2018-04-16T11:14:42.640Z,51.76
2018-04-16T11:15:42.834Z,51.51
2018-04-16T11:16:43.028Z,52.49
2018-04-16T11:17:43.222Z,55.66
2018-04-16T11:18:43.415Z,62.01
2018-04-16T11:19:43.611Z,54.44
2018-04-16T11:20:43.803Z,53.47
2018-04-16T11:21:43.997Z,58.35
2018-04-16T11:22:44.196Z,55.18
2018-04-16T11:23:44.388Z,56.64
2018-04-16T11:24:44.581Z,68.36
2018-04-16T11:25:44.778Z,53.71
2018-04-16T11:26:44.976Z,70.80
2018-04-16T11:27:45.166Z,68.36
2018-04-16T11:28:45.363Z,57.37
2018-04-16T11:29:45.557Z,58.35
2018-04-16T11:30:45.751Z,68.85
2018-04-16T11:31:45.946Z,55.66
2018-04-16T11:32:46.142Z,53.22
2018-04-16T11:33:46.336Z,65.92
2018-04-16T11:34:46.531Z,66.16
2018-04-16T11:35:46.726Z,61.28
2018-04-16T11:36:46.926Z,52.73
2018-04-16T11:37:47.115Z,53.22
2018-04-16T11:38:47.309Z,54.44
2018-04-16T11:39:47.505Z,55.42
2018-04-16T11:40:47.699Z,53.71
2018-04-16T11:41:47.898Z,56.88
2018-04-16T11:42:48.089Z,55.18
2018-04-16T11:43:48.282Z,54.20
2018-04-16T11:44:48.476Z,60.79
2018-04-16T11:45:48.677Z,58.59
2018-04-16T11:46:48.866Z,53.47
2018-04-16T11:47:49.061Z,62.50
2018-04-16T11:48:49.256Z,55.18
2018-04-16T11:49:49.454Z,50.78
2018-04-16T11:50:49.646Z,50.29
2018-04-16T11:51:49.839Z,52.49
2018-04-16T11:52:50.033Z,54.44
2018-04-16T11:53:50.227Z,54.44
2018-04-16T11:54:50.421Z,55.66
2018-04-16T11:55:50.614Z,56.15
2018-04-16T11:56:50.808Z,54.20
2018-04-16T11:57:51.013Z,54.93
2018-04-16T11:58:51.200Z,56.15
2018-04-16T11:59:51.391Z,54.20
2018-04-16T12:00:51.586Z,54.93
2018-04-16T12:01:51.781Z,51.76
2018-04-16T12:02:51.974Z,50.29
2018-04-16T12:03:52.168Z,50.78
2018-04-16T12:04:52.362Z,57.86
2018-04-16T12:05:52.555Z,52.49
2018-04-16T12:06:52.749Z,55.42
2018-04-16T12:07:52.943Z,48.83
2018-04-16T12:08:53.136Z,48.10
2018-04-16T12:09:53.330Z,57.62
2018-04-16T12:10:53.525Z,50.05
2018-04-16T12:11:53.719Z,50.54
2018-04-16T12:12:53.914Z,48.58
2018-04-16T12:13:54.107Z,49.07
2018-04-16T12:14:54.303Z,60.79
2018-04-16T12:15:54.497Z,62.99
2018-04-16T12:16:54.690Z,61.52
2018-04-16T12:17:54.885Z,52.49
2018-04-16T12:18:55.185Z,48.10
2018-04-16T12:19:55.272Z,62.50
2018-04-16T12:20:55.467Z,53.96
2018-04-16T12:21:55.661Z,53.47
2018-04-16T12:22:55.868Z,49.80
2018-04-16T12:23:56.055Z,46.63
2018-04-16T12:24:56.245Z,49.56
2018-04-16T12:25:56.439Z,52.49
2018-04-16T12:26:56.673Z,55.91
2018-04-16T12:27:56.828Z,50.78
2018-04-16T12:28:57.025Z,55.42
2018-04-16T12:29:57.216Z,55.18
2018-04-16T12:30:57.410Z,47.36
2018-04-16T12:31:57.605Z,60.06
2018-04-16T12:32:57.835Z,48.58
2018-04-16T12:33:57.995Z,53.71
2018-04-16T12:34:58.190Z,63.72
2018-04-16T12:35:58.387Z,61.52
2018-04-16T12:36:58.581Z,64.45
2018-04-16T12:37:58.775Z,62.50
2018-04-16T12:38:58.968Z,52.98
2018-04-16T12:39:59.163Z,53.22
2018-04-16T12:40:59.357Z,57.13
2018-04-16T12:41:59.550Z,52.25
2018-04-16T12:42:59.745Z,56.15
2018-04-16T12:43:59.938Z,53.47
2018-04-16T12:45:00.135Z,54.93
2018-04-16T12:46:00.333Z,56.15
2018-04-16T12:47:00.524Z,48.83
2018-04-16T12:48:00.748Z,49.32
2018-04-16T12:49:00.911Z,46.63
2018-04-16T12:50:01.103Z,56.15
2018-04-16T12:51:01.297Z,53.71
2018-04-16T12:52:01.491Z,53.47
2018-04-16T12:53:01.684Z,49.56
2018-04-16T12:54:01.880Z,48.10
2018-04-16T12:55:02.074Z,47.36